Tiszanana, Hungary
Current Conditions -  °F | °C
As of 8:15 PM on Thursday 27 Nov 2014 (Local Time) from LHSN Reporting Station
Haze Haze  
Wind Chill: 24°   Ceiling: 700
Heat Index: 32°   Visibility: 3mi
Dew Point: 30°   Wind: 9mph
Humidity: 93%   Direction: 90°E
Pressure: 30.15"   Gusts: NA
Location:  47.56°N, 20.52°E
Report Text: LHSN 271815Z 09008KT 5000 BR BKN007 OVC057 M00/M01 Q1021 TEMPO BKN004 RMK YLO
Loading
Personal Weather Stations






























Interactive Weather Map New forecast layout! Learn more

10-Day Weather Forecast

Advertisements
Track Severe Weather on mobile